createdAt,value
2022-09-28T00:01:13.825Z,98118.13
2022-09-28T00:03:40.924Z,98120.47
2022-09-28T00:06:11.324Z,98129.59
2022-09-28T00:08:38.677Z,98124.47
2022-09-28T00:11:07.486Z,98121.63
2022-09-28T00:13:35.468Z,98120.81
2022-09-28T00:16:09.006Z,98117.56
2022-09-28T00:18:36.270Z,98136.19
2022-09-28T00:21:05.840Z,98124.66
2022-09-28T00:23:34.042Z,98126.59
2022-09-28T00:26:05.603Z,98124.94
2022-09-28T00:28:33.032Z,98123.78
2022-09-28T00:31:01.019Z,98112.31
2022-09-28T00:33:28.849Z,98082.78
2022-09-28T00:35:59.307Z,98101.88
2022-09-28T00:38:28.646Z,98108.22
2022-09-28T00:40:56.272Z,98106.16
2022-09-28T00:43:24.777Z,98110.94
2022-09-28T00:46:06.617Z,98100.56
2022-09-28T00:48:37.428Z,98096.19
2022-09-28T00:51:12.159Z,98102.91
2022-09-28T00:53:43.557Z,98109.25
2022-09-28T00:56:17.518Z,98106.44
2022-09-28T00:58:49.368Z,98114.78
2022-09-28T01:01:16.994Z,98111.19
2022-09-28T01:03:45.785Z,98107.13
2022-09-28T01:06:22.113Z,98120.66
2022-09-28T01:09:04.330Z,98117.03
2022-09-28T01:11:32.374Z,98119.72
2022-09-28T01:14:01.044Z,98119.72
2022-09-28T01:16:47.061Z,98110.97
2022-09-28T01:19:38.578Z,98119.59
2022-09-28T01:22:43.374Z,98116.72
2022-09-28T01:25:29.147Z,98113.13
2022-09-28T01:28:10.142Z,98105.13
2022-09-28T01:30:58.925Z,98056.34
2022-09-28T01:33:38.824Z,98105.47
2022-09-28T01:36:16.427Z,98117.69
2022-09-28T01:38:49.514Z,98118.38
2022-09-28T01:41:18.197Z,98121.59
2022-09-28T01:43:55.613Z,98125.47
2022-09-28T01:46:28.402Z,98117.59
2022-09-28T01:48:58.085Z,98118.00
2022-09-28T01:51:36.599Z,98128.59
2022-09-28T01:54:14.491Z,98119.75
2022-09-28T01:57:09.697Z,98117.28
2022-09-28T01:59:44.231Z,98127.25
2022-09-28T02:02:19.139Z,98122.03
2022-09-28T02:04:54.059Z,98136.59
2022-09-28T02:07:31.392Z,98135.88
2022-09-28T02:10:10.628Z,98119.84
2022-09-28T02:12:44.710Z,98125.69
2022-09-28T02:15:39.889Z,98132.50
2022-09-28T02:18:07.811Z,98137.69
2022-09-28T02:20:40.852Z,98126.97
2022-09-28T02:23:09.505Z,98130.06
2022-09-28T02:25:43.147Z,98129.94
2022-09-28T02:28:13.558Z,98119.16
2022-09-28T02:30:43.625Z,98126.00
2022-09-28T02:33:17.150Z,98123.72
2022-09-28T02:35:44.740Z,98118.13
2022-09-28T02:38:13.765Z,98127.16
2022-09-28T02:40:46.071Z,98143.25
2022-09-28T02:43:22.201Z,98143.63
2022-09-28T02:45:55.217Z,98147.50
2022-09-28T02:49:10.596Z,98146.63
2022-09-28T02:51:53.342Z,98150.16
2022-09-28T02:54:32.809Z,98139.81
2022-09-28T02:57:21.792Z,98137.44
2022-09-28T03:00:15.089Z,98136.13
2022-09-28T03:02:52.742Z,98148.66
2022-09-28T03:05:24.959Z,98141.53
2022-09-28T03:08:03.431Z,98148.06
2022-09-28T03:11:04.587Z,98140.13
2022-09-28T03:13:34.556Z,98146.75
2022-09-28T03:16:14.039Z,98149.44
2022-09-28T03:18:43.187Z,98152.13
2022-09-28T03:21:14.932Z,98152.38
2022-09-28T03:23:43.200Z,98162.69
2022-09-28T03:26:12.966Z,98160.72
2022-09-28T03:28:41.160Z,98148.38
2022-09-28T03:31:12.446Z,98149.59
2022-09-28T03:33:39.695Z,98156.38
2022-09-28T03:36:08.827Z,98164.00
2022-09-28T03:38:36.689Z,98168.44
2022-09-28T03:41:03.963Z,98161.59
2022-09-28T03:43:35.380Z,98170.84
2022-09-28T03:46:03.952Z,98160.06
2022-09-28T03:48:36.338Z,98172.94
2022-09-28T03:51:07.038Z,98152.28
2022-09-28T03:53:34.265Z,98155.50
2022-09-28T03:56:12.601Z,98149.81
2022-09-28T03:58:40.643Z,98149.31
2022-09-28T04:01:16.611Z,98164.38
2022-09-28T04:03:46.293Z,98137.53
2022-09-28T04:06:14.699Z,98170.34
2022-09-28T04:08:43.152Z,98164.66
2022-09-28T04:11:10.362Z,98168.59
2022-09-28T04:13:37.856Z,98167.78
2022-09-28T04:16:07.844Z,98163.78
2022-09-28T04:18:35.942Z,98166.03
2022-09-28T04:21:14.536Z,98161.66
2022-09-28T04:23:48.871Z,98157.81
2022-09-28T04:26:25.009Z,98161.44
2022-09-28T04:29:11.159Z,98170.09
2022-09-28T04:31:39.584Z,98167.72
2022-09-28T04:34:07.173Z,98172.34
2022-09-28T04:36:34.498Z,98179.28
2022-09-28T04:39:01.649Z,98173.75
2022-09-28T04:41:29.764Z,98172.59
2022-09-28T04:43:57.001Z,98186.19
2022-09-28T04:46:26.295Z,98195.81
2022-09-28T04:49:10.701Z,98196.53
2022-09-28T04:51:53.364Z,98200.97
2022-09-28T04:54:20.479Z,98207.00
2022-09-28T04:56:47.792Z,98203.22
2022-09-28T04:59:14.963Z,98202.94
2022-09-28T05:01:43.363Z,98192.16
2022-09-28T05:04:13.476Z,98176.16
2022-09-28T05:06:59.415Z,98191.34
2022-09-28T05:09:27.125Z,98197.41
2022-09-28T05:11:54.379Z,98199.81
2022-09-28T05:14:24.910Z,98199.63
2022-09-28T05:16:52.810Z,98214.97
2022-09-28T05:19:26.538Z,98210.47
2022-09-28T05:21:58.413Z,98201.50
2022-09-28T05:24:25.720Z,98204.69
2022-09-28T05:26:54.013Z,98207.66
2022-09-28T05:29:21.316Z,98207.66
2022-09-28T05:32:07.134Z,98217.38
2022-09-28T05:34:57.637Z,98235.88
2022-09-28T05:37:30.036Z,98229.72
2022-09-28T05:39:57.991Z,98230.69
2022-09-28T05:42:26.321Z,98238.75
2022-09-28T05:44:53.929Z,98237.25
2022-09-28T05:47:21.055Z,98240.56
2022-09-28T05:49:48.382Z,98240.25
2022-09-28T05:52:15.550Z,98239.19
2022-09-28T05:54:42.799Z,98236.91
2022-09-28T05:57:11.479Z,98248.22
2022-09-28T05:59:39.174Z,98256.31
2022-09-28T06:02:07.163Z,98256.41
2022-09-28T06:04:35.253Z,98241.50
2022-09-28T06:07:02.671Z,98248.03
2022-09-28T06:09:31.040Z,98233.34
2022-09-28T06:12:00.025Z,98248.69
2022-09-28T06:14:40.401Z,98263.13
2022-09-28T06:17:07.734Z,98256.09
2022-09-28T06:19:35.478Z,98273.34
2022-09-28T06:22:24.673Z,98267.50
2022-09-28T06:25:09.931Z,98261.63
2022-09-28T06:27:39.338Z,98264.06
2022-09-28T06:30:07.481Z,98269.72
2022-09-28T06:32:34.771Z,98250.69
2022-09-28T06:35:02.255Z,98264.34
2022-09-28T06:37:33.083Z,98257.59
2022-09-28T06:40:01.919Z,98258.81
2022-09-28T06:42:30.361Z,98266.53
2022-09-28T06:45:30.855Z,98255.03
2022-09-28T06:48:27.977Z,98250.69
2022-09-28T06:50:55.526Z,98256.31
2022-09-28T06:53:29.286Z,98252.38
2022-09-28T06:56:02.845Z,98258.38
2022-09-28T06:58:31.572Z,98261.59
2022-09-28T07:01:00.114Z,98259.22
2022-09-28T07:03:30.046Z,98263.66
2022-09-28T07:06:26.848Z,98259.31
2022-09-28T07:09:29.567Z,98259.34
2022-09-28T07:12:13.587Z,98255.00
2022-09-28T07:15:05.307Z,98259.81
2022-09-28T07:17:42.548Z,98256.63
2022-09-28T07:20:19.083Z,98266.59
2022-09-28T07:22:48.028Z,98274.16
2022-09-28T07:25:19.855Z,98267.00
2022-09-28T07:28:07.373Z,98275.78
2022-09-28T07:30:56.608Z,98271.78
2022-09-28T07:33:42.639Z,98267.38
2022-09-28T07:36:23.319Z,98274.16
2022-09-28T07:38:52.653Z,98268.56
2022-09-28T07:41:32.228Z,98267.41
2022-09-28T07:44:07.763Z,98282.13
2022-09-28T07:46:37.211Z,98280.94
2022-09-28T07:49:12.309Z,98279.31
2022-09-28T07:52:06.448Z,98290.44
2022-09-28T07:54:43.518Z,98292.00
2022-09-28T07:57:26.196Z,98294.00
2022-09-28T08:00:12.961Z,98295.97
2022-09-28T08:02:46.615Z,98301.13
2022-09-28T08:05:18.271Z,98296.78
2022-09-28T08:07:45.883Z,98299.56
2022-09-28T08:10:13.562Z,98287.63
2022-09-28T08:13:05.470Z,98307.50
2022-09-28T08:15:39.916Z,98303.81
2022-09-28T08:18:17.451Z,98290.66
2022-09-28T08:21:03.597Z,98300.16
2022-09-28T08:23:31.264Z,98299.66
2022-09-28T08:25:59.109Z,98292.44
2022-09-28T08:28:26.596Z,98303.66
2022-09-28T08:31:00.237Z,98297.31
2022-09-28T08:33:46.482Z,98288.13
2022-09-28T08:36:32.215Z,98295.25
2022-09-28T08:39:02.440Z,98296.84
2022-09-28T08:41:58.737Z,98309.16
2022-09-28T08:44:59.139Z,98298.38
2022-09-28T08:48:13.661Z,98290.34
2022-09-28T08:51:10.989Z,98290.69
2022-09-28T08:54:01.177Z,98298.25
2022-09-28T08:56:59.527Z,98298.97
2022-09-28T08:59:50.069Z,98288.53
2022-09-28T09:02:26.182Z,98300.91
2022-09-28T09:05:14.885Z,98298.53
2022-09-28T09:08:15.971Z,98283.31
2022-09-28T09:10:54.271Z,98290.38
2022-09-28T09:13:50.350Z,98292.72
2022-09-28T09:16:38.677Z,98292.66
2022-09-28T09:19:31.061Z,98292.59
2022-09-28T09:22:28.572Z,98284.63
2022-09-28T09:25:00.809Z,98286.97
2022-09-28T09:27:46.209Z,98284.16
2022-09-28T09:30:20.290Z,98278.97
2022-09-28T09:32:54.430Z,98290.97
2022-09-28T09:35:59.151Z,98249.56
2022-09-28T09:39:19.036Z,98291.63
2022-09-28T09:42:13.945Z,98293.94
2022-09-28T09:45:27.770Z,98287.16
2022-09-28T09:48:27.281Z,98282.72
2022-09-28T09:51:00.121Z,98279.38
2022-09-28T09:53:40.881Z,98284.59
2022-09-28T09:56:39.805Z,98281.69
2022-09-28T09:59:20.025Z,98280.94
2022-09-28T10:02:28.852Z,98284.69
2022-09-28T10:05:09.665Z,98283.91
2022-09-28T10:07:53.751Z,98284.25
2022-09-28T10:10:30.448Z,98284.06
2022-09-28T10:13:08.971Z,98261.31
2022-09-28T10:15:37.196Z,98276.31
2022-09-28T10:18:19.386Z,98273.81
2022-09-28T10:21:05.615Z,98277.84
2022-09-28T10:23:45.073Z,98275.47
2022-09-28T10:26:25.380Z,98271.13
2022-09-28T10:28:59.320Z,98277.09
2022-09-28T10:31:54.563Z,98273.06
2022-09-28T10:34:31.197Z,98271.41
2022-09-28T10:37:11.395Z,98267.72
2022-09-28T10:39:58.930Z,98273.34
2022-09-28T10:42:32.846Z,98260.91
2022-09-28T10:45:20.901Z,98261.25
2022-09-28T10:47:49.862Z,98277.81
2022-09-28T10:50:24.234Z,98272.41
2022-09-28T10:53:20.416Z,98284.09
2022-09-28T10:56:22.684Z,98260.81
2022-09-28T10:58:59.389Z,98273.50
2022-09-28T11:01:41.633Z,98269.28
2022-09-28T11:04:23.192Z,98282.16
2022-09-28T11:06:51.694Z,98277.09
2022-09-28T11:09:30.522Z,98270.81
2022-09-28T11:12:06.848Z,98257.47
2022-09-28T11:14:43.836Z,98257.72
2022-09-28T11:17:17.854Z,98258.75
2022-09-28T11:19:47.438Z,98259.31
2022-09-28T11:22:23.881Z,98258.63
2022-09-28T11:25:14.917Z,98255.34
2022-09-28T11:28:04.941Z,98252.03
2022-09-28T11:30:53.047Z,98250.34
2022-09-28T11:33:46.407Z,98249.41
2022-09-28T11:36:57.326Z,98256.63
2022-09-28T11:40:21.747Z,98257.63
2022-09-28T11:42:52.408Z,98254.22
2022-09-28T11:45:48.292Z,98242.44
2022-09-28T11:48:31.712Z,98233.78
2022-09-28T11:51:09.094Z,98240.47
2022-09-28T11:53:53.386Z,98245.19
2022-09-28T11:56:40.417Z,98249.63
2022-09-28T11:59:27.764Z,98244.03
2022-09-28T12:02:00.952Z,98237.91
2022-09-28T12:04:55.113Z,98239.50
2022-09-28T12:07:24.303Z,98244.38
2022-09-28T12:10:10.136Z,98239.88
2022-09-28T12:12:53.624Z,98227.47
2022-09-28T12:15:38.238Z,98236.03
2022-09-28T12:18:17.771Z,98224.72
2022-09-28T12:20:52.289Z,98217.31
2022-09-28T12:23:27.087Z,98209.31
2022-09-28T12:26:11.017Z,98202.84
2022-09-28T12:28:50.135Z,98211.28
2022-09-28T12:31:38.146Z,98217.13
2022-09-28T12:34:05.511Z,98212.28
2022-09-28T12:37:11.321Z,98213.88
2022-09-28T12:39:58.963Z,98203.78
2022-09-28T12:42:57.651Z,98191.47
2022-09-28T12:45:42.869Z,98199.31
2022-09-28T12:48:36.342Z,98206.75
2022-09-28T12:51:21.979Z,98202.41
2022-09-28T12:53:58.201Z,98208.81
2022-09-28T12:56:28.919Z,98203.56
2022-09-28T12:59:13.588Z,98207.31
2022-09-28T13:01:59.797Z,98208.72
2022-09-28T13:05:02.613Z,98206.69
2022-09-28T13:07:50.048Z,98207.06
2022-09-28T13:10:35.994Z,98200.63
2022-09-28T13:13:42.627Z,98192.63
2022-09-28T13:16:25.398Z,98208.31
2022-09-28T13:19:35.121Z,98205.50
2022-09-28T13:22:25.515Z,98201.72
2022-09-28T13:24:56.993Z,98197.81
2022-09-28T13:27:39.966Z,98199.69
2022-09-28T13:30:08.511Z,98179.78
2022-09-28T13:32:37.497Z,98209.91
2022-09-28T13:35:06.624Z,98203.50
2022-09-28T13:37:34.805Z,98201.13
2022-09-28T13:40:08.598Z,98200.63
2022-09-28T13:42:38.932Z,98202.44
2022-09-28T13:45:21.592Z,98199.28
2022-09-28T13:47:58.328Z,98200.34
2022-09-28T13:50:56.871Z,98203.16
2022-09-28T13:53:39.708Z,98201.13
2022-09-28T13:56:35.174Z,98201.75
2022-09-28T13:59:35.264Z,98205.25
2022-09-28T14:02:10.989Z,98192.41
2022-09-28T14:05:06.501Z,98202.06
2022-09-28T14:07:36.802Z,98203.94
2022-09-28T14:10:21.228Z,98216.56
2022-09-28T14:12:54.488Z,98206.31
2022-09-28T14:15:48.442Z,98203.06
2022-09-28T14:18:33.639Z,98206.66
2022-09-28T14:21:13.804Z,98203.06
2022-09-28T14:23:50.788Z,98212.09
2022-09-28T14:26:42.006Z,98207.72
2022-09-28T14:29:29.882Z,98200.34
2022-09-28T14:32:04.150Z,98206.31
2022-09-28T14:35:04.559Z,98208.41
2022-09-28T14:37:57.699Z,98205.25
2022-09-28T14:40:55.520Z,98211.31
2022-09-28T14:43:36.077Z,98221.53
2022-09-28T14:46:16.969Z,98228.38
2022-09-28T14:48:56.293Z,98230.75
2022-09-28T14:51:27.081Z,98234.00
2022-09-28T14:53:58.488Z,98192.41
2022-09-28T14:56:30.449Z,98233.03
2022-09-28T14:59:00.895Z,98235.06
2022-09-28T15:01:28.362Z,98225.84
2022-09-28T15:03:59.647Z,98236.63
2022-09-28T15:06:29.744Z,98229.06
2022-09-28T15:08:56.880Z,98232.75
2022-09-28T15:11:26.412Z,98231.53
2022-09-28T15:14:07.242Z,98228.50
2022-09-28T15:16:34.794Z,98237.41
2022-09-28T15:19:22.651Z,98243.97
2022-09-28T15:21:53.391Z,98233.03
2022-09-28T15:24:26.501Z,98237.25
2022-09-28T15:26:53.718Z,98230.69
2022-09-28T15:29:22.977Z,98238.19
2022-09-28T15:31:54.259Z,98242.00
2022-09-28T15:35:02.312Z,98236.75
2022-09-28T15:37:40.252Z,98242.56
2022-09-28T15:40:15.687Z,98242.78
2022-09-28T15:42:45.418Z,98244.53
2022-09-28T15:45:35.117Z,98247.47
2022-09-28T15:48:31.105Z,98250.16
2022-09-28T15:51:13.211Z,98245.50
2022-09-28T15:54:19.337Z,98243.66
2022-09-28T15:56:55.141Z,98248.66
2022-09-28T15:59:29.522Z,98243.94
2022-09-28T16:02:10.754Z,98240.53
2022-09-28T16:04:48.335Z,98252.59
2022-09-28T16:07:30.577Z,98255.91
2022-09-28T16:10:26.311Z,98247.16
2022-09-28T16:13:00.503Z,98244.88
2022-09-28T16:15:36.841Z,98249.72
2022-09-28T16:18:19.061Z,98254.16
2022-09-28T16:20:58.944Z,98249.88
2022-09-28T16:23:34.422Z,98245.56
2022-09-28T16:26:09.434Z,98253.16
2022-09-28T16:28:40.307Z,98254.41
2022-09-28T16:31:15.323Z,98246.44
2022-09-28T16:33:59.173Z,98244.88
2022-09-28T16:36:30.045Z,98248.88
2022-09-28T16:38:57.478Z,98250.91
2022-09-28T16:41:29.098Z,98250.56
2022-09-28T16:44:02.367Z,98263.34
2022-09-28T16:46:37.611Z,98258.59
2022-09-28T16:49:07.088Z,98268.97
2022-09-28T16:51:34.206Z,98281.72
2022-09-28T16:54:48.268Z,98284.13
2022-09-28T16:57:15.823Z,98286.13
2022-09-28T16:59:43.509Z,98283.34
2022-09-28T17:02:42.184Z,98275.38
2022-09-28T17:05:07.089Z,98291.31
2022-09-28T17:07:34.781Z,98294.47
2022-09-28T17:10:02.081Z,98292.88
2022-09-28T17:12:31.536Z,98304.03
2022-09-28T17:15:00.378Z,98289.31
2022-09-28T17:17:29.984Z,98278.56
2022-09-28T17:19:57.780Z,98278.94
2022-09-28T17:22:25.131Z,98303.25
2022-09-28T17:24:52.598Z,98301.25
2022-09-28T17:27:21.815Z,98309.59
2022-09-28T17:29:51.504Z,98309.59
2022-09-28T17:32:19.871Z,98306.78
2022-09-28T17:34:55.994Z,98295.22
2022-09-28T17:37:36.317Z,98300.00
2022-09-28T17:40:16.440Z,98303.16
2022-09-28T17:42:43.998Z,98316.69
2022-09-28T17:45:11.176Z,98319.00
2022-09-28T17:47:38.236Z,98315.03
2022-09-28T17:50:22.624Z,98310.25
2022-09-28T17:52:54.304Z,98312.22
2022-09-28T17:55:30.532Z,98306.66
2022-09-28T17:57:59.062Z,98303.09
2022-09-28T18:00:28.801Z,98304.69
2022-09-28T18:02:57.708Z,98305.47
2022-09-28T18:05:27.097Z,98298.31
2022-09-28T18:07:55.758Z,98313.44
2022-09-28T18:10:24.502Z,98311.03
2022-09-28T18:12:52.070Z,98320.56
2022-09-28T18:15:19.786Z,98313.00
2022-09-28T18:17:48.384Z,98319.34
2022-09-28T18:20:16.290Z,98321.31
2022-09-28T18:22:44.671Z,98319.72
2022-09-28T18:25:13.857Z,98318.94
2022-09-28T18:27:41.067Z,98317.72
2022-09-28T18:30:08.877Z,98310.97
2022-09-28T18:32:37.209Z,98307.34
2022-09-28T18:35:08.202Z,98318.88
2022-09-28T18:37:40.100Z,98307.72
2022-09-28T18:40:12.929Z,98304.47
2022-09-28T18:42:54.765Z,98296.44
2022-09-28T18:45:29.537Z,98324.38
2022-09-28T18:47:58.090Z,98325.16
2022-09-28T18:50:25.797Z,98316.38
2022-09-28T18:52:53.007Z,98331.50
2022-09-28T18:55:20.278Z,98325.09
2022-09-28T18:57:55.273Z,98325.09
2022-09-28T19:00:22.744Z,98318.25
2022-09-28T19:02:50.314Z,98325.06
2022-09-28T19:05:17.781Z,98324.22
2022-09-28T19:07:44.826Z,98329.81
2022-09-28T19:10:12.158Z,98333.00
2022-09-28T19:12:39.134Z,98334.53
2022-09-28T19:15:07.006Z,98338.56
2022-09-28T19:17:34.219Z,98329.81
2022-09-28T19:20:01.561Z,98344.88
2022-09-28T19:22:31.576Z,98344.06
2022-09-28T19:24:58.932Z,98346.75
2022-09-28T19:27:25.969Z,98350.25
2022-09-28T19:29:53.169Z,98345.03
2022-09-28T19:32:20.157Z,98357.78
2022-09-28T19:34:47.530Z,98352.63
2022-09-28T19:37:14.805Z,98358.25
2022-09-28T19:39:41.811Z,98347.81
2022-09-28T19:42:08.834Z,98356.19
2022-09-28T19:44:37.478Z,98340.66
2022-09-28T19:47:08.080Z,98348.19
2022-09-28T19:49:37.273Z,98355.34
2022-09-28T19:52:14.259Z,98345.81
2022-09-28T19:54:57.074Z,98339.44
2022-09-28T19:57:27.780Z,98340.63
2022-09-28T20:00:00.940Z,98354.63
2022-09-28T20:02:34.595Z,98341.84
2022-09-28T20:05:02.267Z,98363.81
2022-09-28T20:07:33.138Z,98359.88
2022-09-28T20:10:00.418Z,98352.34
2022-09-28T20:12:27.552Z,98357.56
2022-09-28T20:14:54.947Z,98369.50
2022-09-28T20:17:22.197Z,98364.69
2022-09-28T20:19:51.873Z,98357.53
2022-09-28T20:22:20.105Z,98356.31
2022-09-28T20:24:47.547Z,98346.41
2022-09-28T20:27:14.649Z,98348.38
2022-09-28T20:29:43.117Z,98347.56
2022-09-28T20:32:11.574Z,98336.44
2022-09-28T20:34:38.904Z,98360.72
2022-09-28T20:37:05.955Z,98360.69
2022-09-28T20:39:33.127Z,98365.84
2022-09-28T20:42:00.350Z,98372.66
2022-09-28T20:44:27.499Z,98359.09
2022-09-28T20:46:54.718Z,98375.44
2022-09-28T20:49:21.974Z,98384.53
2022-09-28T20:51:49.071Z,98382.19
2022-09-28T20:54:16.211Z,98378.16
2022-09-28T20:56:43.362Z,98381.25
2022-09-28T20:59:12.109Z,98376.41
2022-09-28T21:01:40.030Z,98378.75
2022-09-28T21:04:08.694Z,98371.59
2022-09-28T21:06:38.407Z,98368.41
2022-09-28T21:09:07.653Z,98362.84
2022-09-28T21:11:35.908Z,98369.56
2022-09-28T21:14:06.470Z,98372.34
2022-09-28T21:16:35.276Z,98380.28
2022-09-28T21:19:03.072Z,98379.13
2022-09-28T21:21:30.485Z,98377.94
2022-09-28T21:23:58.247Z,98385.13
2022-09-28T21:26:28.011Z,98381.16
2022-09-28T21:28:57.968Z,98381.19
2022-09-28T21:31:29.059Z,98383.63
2022-09-28T21:33:57.943Z,98365.69
2022-09-28T21:36:25.952Z,98370.09
2022-09-28T21:38:54.522Z,98362.94
2022-09-28T21:41:22.087Z,98363.31
2022-09-28T21:43:49.401Z,98365.72
2022-09-28T21:46:17.750Z,98374.88
2022-09-28T21:48:45.354Z,98365.31
2022-09-28T21:51:16.187Z,98371.28
2022-09-28T21:53:43.353Z,98368.88
2022-09-28T21:56:12.786Z,98360.97
2022-09-28T21:58:40.791Z,98361.03
2022-09-28T22:01:14.811Z,98354.25
2022-09-28T22:03:47.653Z,98354.19
2022-09-28T22:06:19.678Z,98360.09
2022-09-28T22:08:48.056Z,98352.88
2022-09-28T22:11:17.302Z,98354.81
2022-09-28T22:13:53.958Z,98362.66
2022-09-28T22:16:23.321Z,98346.66
2022-09-28T22:18:57.050Z,98346.25
2022-09-28T22:21:31.961Z,98349.78
2022-09-28T22:24:01.536Z,98353.75
2022-09-28T22:26:30.131Z,98349.31
2022-09-28T22:29:00.003Z,98339.34
2022-09-28T22:31:29.560Z,98334.47
2022-09-28T22:33:56.998Z,98348.41
2022-09-28T22:36:24.521Z,98360.69
2022-09-28T22:38:59.441Z,98339.69
2022-09-28T22:41:32.931Z,98340.88
2022-09-28T22:44:01.175Z,98339.31
2022-09-28T22:46:32.810Z,98346.50
2022-09-28T22:49:00.944Z,98337.75
2022-09-28T22:51:35.817Z,98335.69
2022-09-28T22:54:04.902Z,98334.09
2022-09-28T22:56:32.035Z,98337.63
2022-09-28T22:58:59.564Z,98321.72
2022-09-28T23:01:41.028Z,98326.88
2022-09-28T23:04:09.366Z,98313.69
2022-09-28T23:06:36.616Z,98325.25
2022-09-28T23:09:04.024Z,98297.28
2022-09-28T23:11:31.322Z,98324.84
2022-09-28T23:13:59.678Z,98330.41
2022-09-28T23:16:27.736Z,98331.13
2022-09-28T23:18:55.666Z,98328.69
2022-09-28T23:21:25.231Z,98332.97
2022-09-28T23:24:03.515Z,98330.53
2022-09-28T23:26:32.972Z,98312.63
2022-09-28T23:29:00.806Z,98323.00
2022-09-28T23:31:31.087Z,98321.41
2022-09-28T23:34:03.681Z,98314.88
2022-09-28T23:36:31.232Z,98318.50
2022-09-28T23:38:58.895Z,98311.69
2022-09-28T23:41:26.202Z,98302.41
2022-09-28T23:43:53.300Z,98305.22
2022-09-28T23:46:21.217Z,98303.69
2022-09-28T23:48:49.248Z,98298.06
2022-09-28T23:51:16.416Z,98299.69
2022-09-28T23:53:43.683Z,98305.22
2022-09-28T23:56:11.206Z,98310.41
2022-09-28T23:58:38.435Z,98309.25
